sensor_id;sensor_type;location;lat;lon;timestamp;pressure;altitude;pressure_sealevel;temperature;humidity
57232;BME280;43488;46.934;8.276;2022-10-16T00:01:42;96477.66;;;13.99;100.00
57232;BME280;43488;46.934;8.276;2022-10-16T00:04:10;96483.88;;;13.93;100.00
57232;BME280;43488;46.934;8.276;2022-10-16T00:06:38;96487.56;;;13.92;100.00
57232;BME280;43488;46.934;8.276;2022-10-16T00:09:06;96480.50;;;13.86;100.00
57232;BME280;43488;46.934;8.276;2022-10-16T00:11:38;96482.13;;;13.87;100.00
57232;BME280;43488;46.934;8.276;2022-10-16T00:14:13;96473.38;;;13.86;100.00
57232;BME280;43488;46.934;8.276;2022-10-16T00:16:41;96474.31;;;13.92;100.00
57232;BME280;43488;46.934;8.276;2022-10-16T00:19:11;96483.88;;;13.93;100.00
57232;BME280;43488;46.934;8.276;2022-10-16T00:21:40;96480.75;;;13.96;100.00
57232;BME280;43488;46.934;8.276;2022-10-16T00:24:09;96470.75;;;13.98;100.00
57232;BME280;43488;46.934;8.276;2022-10-16T00:26:39;96479.72;;;13.97;100.00
57232;BME280;43488;46.934;8.276;2022-10-16T00:29:07;96474.91;;;13.94;100.00
57232;BME280;43488;46.934;8.276;2022-10-16T00:31:35;96483.41;;;13.96;100.00
57232;BME280;43488;46.934;8.276;2022-10-16T00:34:03;96485.25;;;13.95;100.00
57232;BME280;43488;46.934;8.276;2022-10-16T00:36:30;96473.38;;;13.98;100.00
57232;BME280;43488;46.934;8.276;2022-10-16T00:38:59;96480.31;;;13.99;100.00
57232;BME280;43488;46.934;8.276;2022-10-16T00:41:29;96481.31;;;13.98;100.00
57232;BME280;43488;46.934;8.276;2022-10-16T00:43:59;96481.94;;;14.00;100.00
57232;BME280;43488;46.934;8.276;2022-10-16T00:46:41;96496.78;;;14.01;100.00
57232;BME280;43488;46.934;8.276;2022-10-16T00:49:14;96490.44;;;14.02;100.00
57232;BME280;43488;46.934;8.276;2022-10-16T00:51:46;96482.38;;;13.97;100.00
57232;BME280;43488;46.934;8.276;2022-10-16T00:54:22;96486.84;;;13.97;100.00
57232;BME280;43488;46.934;8.276;2022-10-16T00:56:53;96482.03;;;13.93;100.00
57232;BME280;43488;46.934;8.276;2022-10-16T00:59:44;96484.91;;;13.92;100.00
57232;BME280;43488;46.934;8.276;2022-10-16T01:02:15;96491.25;;;13.91;100.00
57232;BME280;43488;46.934;8.276;2022-10-16T01:04:51;96488.78;;;13.89;100.00
57232;BME280;43488;46.934;8.276;2022-10-16T01:07:36;96493.09;;;13.90;100.00
57232;BME280;43488;46.934;8.276;2022-10-16T01:13:17;96494.22;;;13.94;100.00
57232;BME280;43488;46.934;8.276;2022-10-16T01:15:56;96489.16;;;13.93;100.00
57232;BME280;43488;46.934;8.276;2022-10-16T01:18:46;96501.22;;;13.89;100.00
57232;BME280;43488;46.934;8.276;2022-10-16T01:21:23;96499.28;;;13.84;100.00
57232;BME280;43488;46.934;8.276;2022-10-16T01:24:27;96502.38;;;13.81;100.00
57232;BME280;43488;46.934;8.276;2022-10-16T01:32:28;96500.00;;;13.61;100.00
57232;BME280;43488;46.934;8.276;2022-10-16T01:35:09;96502.09;;;13.59;100.00
57232;BME280;43488;46.934;8.276;2022-10-16T01:37:47;96512.91;;;13.58;100.00
57232;BME280;43488;46.934;8.276;2022-10-16T01:40:19;96499.44;;;13.59;100.00
57232;BME280;43488;46.934;8.276;2022-10-16T01:43:03;96499.91;;;13.56;100.00
57232;BME280;43488;46.934;8.276;2022-10-16T01:45:33;96502.78;;;13.55;100.00
57232;BME280;43488;46.934;8.276;2022-10-16T01:48:02;96504.38;;;13.56;100.00
57232;BME280;43488;46.934;8.276;2022-10-16T01:50:37;96506.81;;;13.57;100.00
57232;BME280;43488;46.934;8.276;2022-10-16T01:53:11;96514.75;;;13.57;100.00
57232;BME280;43488;46.934;8.276;2022-10-16T01:55:44;96512.91;;;13.58;100.00
57232;BME280;43488;46.934;8.276;2022-10-16T01:58:14;96517.59;;;13.44;100.00
57232;BME280;43488;46.934;8.276;2022-10-16T02:00:44;96513.53;;;13.42;100.00
57232;BME280;43488;46.934;8.276;2022-10-16T02:03:17;96520.53;;;13.36;100.00
57232;BME280;43488;46.934;8.276;2022-10-16T02:05:55;96509.72;;;13.37;100.00
57232;BME280;43488;46.934;8.276;2022-10-16T02:08:27;96516.06;;;13.36;100.00
57232;BME280;43488;46.934;8.276;2022-10-16T02:10:57;96520.53;;;13.36;100.00
57232;BME280;43488;46.934;8.276;2022-10-16T02:13:38;96518.09;;;13.34;100.00
57232;BME280;43488;46.934;8.276;2022-10-16T02:16:06;96527.50;;;13.30;100.00
57232;BME280;43488;46.934;8.276;2022-10-16T02:18:34;96522.22;;;13.30;100.00
57232;BME280;43488;46.934;8.276;2022-10-16T02:21:24;96525.97;;;13.23;100.00
57232;BME280;43488;46.934;8.276;2022-10-16T02:33:12;96521.66;;;13.10;100.00
57232;BME280;43488;46.934;8.276;2022-10-16T02:35:42;96524.06;;;13.12;100.00
57232;BME280;43488;46.934;8.276;2022-10-16T02:38:11;96532.44;;;13.08;100.00
57232;BME280;43488;46.934;8.276;2022-10-16T02:40:40;96525.97;;;13.04;100.00
57232;BME280;43488;46.934;8.276;2022-10-16T02:43:08;96536.41;;;12.99;100.00
57232;BME280;43488;46.934;8.276;2022-10-16T02:45:36;96539.50;;;12.96;100.00
57232;BME280;43488;46.934;8.276;2022-10-16T02:48:03;96538.16;;;12.87;100.00
57232;BME280;43488;46.934;8.276;2022-10-16T02:50:31;96542.72;;;12.80;100.00
57232;BME280;43488;46.934;8.276;2022-10-16T02:52:58;96543.53;;;12.80;100.00
57232;BME280;43488;46.934;8.276;2022-10-16T02:55:26;96550.06;;;12.78;100.00
57232;BME280;43488;46.934;8.276;2022-10-16T02:57:55;96555.91;;;12.80;100.00
57232;BME280;43488;46.934;8.276;2022-10-16T03:00:22;96551.94;;;12.71;100.00
57232;BME280;43488;46.934;8.276;2022-10-16T03:02:50;96552.97;;;12.70;100.00
57232;BME280;43488;46.934;8.276;2022-10-16T03:05:17;96550.22;;;12.65;100.00
57232;BME280;43488;46.934;8.276;2022-10-16T03:07:45;96540.00;;;12.68;100.00
57232;BME280;43488;46.934;8.276;2022-10-16T03:10:12;96546.66;;;12.71;100.00
57232;BME280;43488;46.934;8.276;2022-10-16T03:12:39;96539.13;;;12.74;100.00
57232;BME280;43488;46.934;8.276;2022-10-16T03:15:09;96533.63;;;12.76;100.00
57232;BME280;43488;46.934;8.276;2022-10-16T03:17:36;96543.75;;;12.79;100.00
57232;BME280;43488;46.934;8.276;2022-10-16T03:20:05;96532.16;;;12.80;100.00
57232;BME280;43488;46.934;8.276;2022-10-16T03:22:32;96528.91;;;12.78;100.00
57232;BME280;43488;46.934;8.276;2022-10-16T03:25:00;96533.19;;;12.79;100.00
57232;BME280;43488;46.934;8.276;2022-10-16T03:27:28;96539.66;;;12.83;100.00
57232;BME280;43488;46.934;8.276;2022-10-16T03:29:55;96531.72;;;12.83;100.00
57232;BME280;43488;46.934;8.276;2022-10-16T03:32:22;96526.78;;;12.87;100.00
57232;BME280;43488;46.934;8.276;2022-10-16T03:34:51;96535.91;;;12.91;100.00
57232;BME280;43488;46.934;8.276;2022-10-16T03:37:21;96527.19;;;12.90;100.00
57232;BME280;43488;46.934;8.276;2022-10-16T03:39:50;96537.75;;;12.90;100.00
57232;BME280;43488;46.934;8.276;2022-10-16T03:42:18;96547.50;;;12.90;100.00
57232;BME280;43488;46.934;8.276;2022-10-16T03:44:46;96545.44;;;12.92;100.00
57232;BME280;43488;46.934;8.276;2022-10-16T03:47:13;96547.06;;;12.93;100.00
57232;BME280;43488;46.934;8.276;2022-10-16T03:49:40;96541.31;;;12.96;100.00
57232;BME280;43488;46.934;8.276;2022-10-16T03:52:07;96549.63;;;12.99;100.00
57232;BME280;43488;46.934;8.276;2022-10-16T03:54:35;96550.28;;;12.95;100.00
57232;BME280;43488;46.934;8.276;2022-10-16T03:57:03;96544.25;;;12.88;100.00
57232;BME280;43488;46.934;8.276;2022-10-16T03:59:31;96540.00;;;12.87;100.00
57232;BME280;43488;46.934;8.276;2022-10-16T04:01:58;96551.16;;;12.89;100.00
57232;BME280;43488;46.934;8.276;2022-10-16T04:04:27;96537.38;;;12.87;100.00
57232;BME280;43488;46.934;8.276;2022-10-16T04:06:55;96541.84;;;12.86;100.00
57232;BME280;43488;46.934;8.276;2022-10-16T04:09:22;96542.41;;;12.88;100.00
57232;BME280;43488;46.934;8.276;2022-10-16T04:11:50;96532.47;;;12.90;100.00
57232;BME280;43488;46.934;8.276;2022-10-16T04:14:18;96536.50;;;12.93;100.00
57232;BME280;43488;46.934;8.276;2022-10-16T04:16:45;96532.47;;;12.90;100.00
57232;BME280;43488;46.934;8.276;2022-10-16T04:19:12;96535.69;;;12.92;100.00
57232;BME280;43488;46.934;8.276;2022-10-16T04:21:40;96547.88;;;12.93;100.00
57232;BME280;43488;46.934;8.276;2022-10-16T04:24:07;96541.56;;;12.94;100.00
57232;BME280;43488;46.934;8.276;2022-10-16T04:26:35;96549.94;;;12.91;100.00
57232;BME280;43488;46.934;8.276;2022-10-16T04:29:02;96556.25;;;12.90;100.00
57232;BME280;43488;46.934;8.276;2022-10-16T04:31:29;96549.78;;;12.86;100.00
57232;BME280;43488;46.934;8.276;2022-10-16T04:33:57;96562.09;;;12.92;100.00
57232;BME280;43488;46.934;8.276;2022-10-16T04:36:25;96565.34;;;12.94;100.00
57232;BME280;43488;46.934;8.276;2022-10-16T04:38:52;96563.50;;;12.95;100.00
57232;BME280;43488;46.934;8.276;2022-10-16T04:41:19;96571.88;;;12.92;100.00
57232;BME280;43488;46.934;8.276;2022-10-16T04:43:47;96568.19;;;12.93;100.00
57232;BME280;43488;46.934;8.276;2022-10-16T04:46:14;96573.47;;;12.93;100.00
57232;BME280;43488;46.934;8.276;2022-10-16T04:48:42;96580.38;;;12.94;100.00
57232;BME280;43488;46.934;8.276;2022-10-16T04:51:09;96577.75;;;12.94;100.00
57232;BME280;43488;46.934;8.276;2022-10-16T04:53:37;96577.75;;;12.94;100.00
57232;BME280;43488;46.934;8.276;2022-10-16T04:56:04;96583.47;;;12.91;100.00
57232;BME280;43488;46.934;8.276;2022-10-16T04:58:32;96579.63;;;12.87;100.00
57232;BME280;43488;46.934;8.276;2022-10-16T05:01:00;96604.09;;;12.82;100.00
57232;BME280;43488;46.934;8.276;2022-10-16T05:03:27;96595.94;;;12.84;100.00
57232;BME280;43488;46.934;8.276;2022-10-16T05:05:54;96595.53;;;12.80;100.00
57232;BME280;43488;46.934;8.276;2022-10-16T05:08:22;96596.16;;;12.82;100.00
57232;BME280;43488;46.934;8.276;2022-10-16T05:10:49;96596.56;;;12.79;100.00
57232;BME280;43488;46.934;8.276;2022-10-16T05:13:17;96596.16;;;12.82;100.00
57232;BME280;43488;46.934;8.276;2022-10-16T05:15:47;96593.66;;;12.87;100.00
57232;BME280;43488;46.934;8.276;2022-10-16T05:18:16;96585.31;;;12.90;100.00
57232;BME280;43488;46.934;8.276;2022-10-16T05:20:43;96589.56;;;12.91;100.00
57232;BME280;43488;46.934;8.276;2022-10-16T05:23:10;96594.22;;;12.89;100.00
57232;BME280;43488;46.934;8.276;2022-10-16T05:25:39;96587.78;;;12.85;100.00
57232;BME280;43488;46.934;8.276;2022-10-16T05:28:06;96582.28;;;12.87;100.00
57232;BME280;43488;46.934;8.276;2022-10-16T05:30:33;96587.78;;;12.85;100.00
57232;BME280;43488;46.934;8.276;2022-10-16T05:33:01;96587.78;;;12.85;100.00
57232;BME280;43488;46.934;8.276;2022-10-16T05:35:28;96587.78;;;12.85;100.00
57232;BME280;43488;46.934;8.276;2022-10-16T05:37:55;96593.66;;;12.87;100.00
57232;BME280;43488;46.934;8.276;2022-10-16T05:40:23;96592.63;;;12.88;100.00
57232;BME280;43488;46.934;8.276;2022-10-16T05:42:54;96588.59;;;12.86;100.00
57232;BME280;43488;46.934;8.276;2022-10-16T05:45:21;96588.59;;;12.86;100.00
57232;BME280;43488;46.934;8.276;2022-10-16T05:47:48;96594.03;;;12.91;100.00
57232;BME280;43488;46.934;8.276;2022-10-16T05:50:15;96593.00;;;12.92;100.00
57232;BME280;43488;46.934;8.276;2022-10-16T05:52:43;96599.09;;;12.92;100.00
57232;BME280;43488;46.934;8.276;2022-10-16T05:55:10;96599.09;;;12.92;100.00
57232;BME280;43488;46.934;8.276;2022-10-16T05:57:37;96601.97;;;12.91;100.00
57232;BME280;43488;46.934;8.276;2022-10-16T06:00:06;96598.94;;;12.87;100.00
57232;BME280;43488;46.934;8.276;2022-10-16T06:02:33;96602.16;;;12.89;100.00
57232;BME280;43488;46.934;8.276;2022-10-16T06:05:00;96604.88;;;12.82;100.00
57232;BME280;43488;46.934;8.276;2022-10-16T06:07:28;96603.63;;;12.85;100.00
57232;BME280;43488;46.934;8.276;2022-10-16T06:09:55;96604.22;;;12.87;100.00
57232;BME280;43488;46.934;8.276;2022-10-16T06:12:23;96603.88;;;12.84;100.00
57232;BME280;43488;46.934;8.276;2022-10-16T06:14:50;96603.88;;;12.84;100.00
57232;BME280;43488;46.934;8.276;2022-10-16T06:17:18;96601.81;;;12.86;100.00
57232;BME280;43488;46.934;8.276;2022-10-16T06:19:45;96613.41;;;12.85;100.00
57232;BME280;43488;46.934;8.276;2022-10-16T06:22:12;96610.53;;;12.86;100.00
57232;BME280;43488;46.934;8.276;2022-10-16T06:24:39;96614.94;;;12.92;100.00
57232;BME280;43488;46.934;8.276;2022-10-16T06:27:07;96609.22;;;12.95;100.00
57232;BME280;43488;46.934;8.276;2022-10-16T06:29:34;96611.63;;;12.97;100.00
57232;BME280;43488;46.934;8.276;2022-10-16T06:32:01;96614.94;;;12.92;100.00
57232;BME280;43488;46.934;8.276;2022-10-16T06:34:29;96620.38;;;12.97;100.00
57232;BME280;43488;46.934;8.276;2022-10-16T06:36:56;96613.41;;;13.03;100.00
57232;BME280;43488;46.934;8.276;2022-10-16T06:39:23;96620.69;;;13.07;100.00
57232;BME280;43488;46.934;8.276;2022-10-16T06:41:51;96614.16;;;13.10;100.00
57232;BME280;43488;46.934;8.276;2022-10-16T06:44:18;96616.94;;;13.15;100.00
57232;BME280;43488;46.934;8.276;2022-10-16T06:46:45;96619.75;;;13.20;100.00
57232;BME280;43488;46.934;8.276;2022-10-16T06:49:13;96617.06;;;13.27;100.00
57232;BME280;43488;46.934;8.276;2022-10-16T06:51:42;96626.72;;;13.33;100.00
57232;BME280;43488;46.934;8.276;2022-10-16T06:54:10;96621.81;;;13.36;100.00
57232;BME280;43488;46.934;8.276;2022-10-16T06:56:37;96621.00;;;13.36;100.00
57232;BME280;43488;46.934;8.276;2022-10-16T06:59:04;96624.59;;;13.42;100.00
57232;BME280;43488;46.934;8.276;2022-10-16T07:01:32;96624.28;;;13.50;100.00
57232;BME280;43488;46.934;8.276;2022-10-16T07:04:01;96629.34;;;13.51;100.00
57232;BME280;43488;46.934;8.276;2022-10-16T07:06:33;96638.25;;;13.57;100.00
57232;BME280;43488;46.934;8.276;2022-10-16T07:09:04;96640.81;;;13.63;100.00
57232;BME280;43488;46.934;8.276;2022-10-16T07:11:32;96643.34;;;13.70;100.00
57232;BME280;43488;46.934;8.276;2022-10-16T07:13:59;96648.56;;;13.77;100.00
57232;BME280;43488;46.934;8.276;2022-10-16T07:16:29;96658.84;;;13.85;100.00
57232;BME280;43488;46.934;8.276;2022-10-16T07:19:00;96663.25;;;13.91;100.00
57232;BME280;43488;46.934;8.276;2022-10-16T07:21:31;96659.25;;;14.00;100.00
57232;BME280;43488;46.934;8.276;2022-10-16T07:24:04;96666.66;;;14.10;100.00
57232;BME280;43488;46.934;8.276;2022-10-16T07:26:35;96670.94;;;14.22;100.00
57232;BME280;43488;46.934;8.276;2022-10-16T07:29:03;96666.13;;;14.31;100.00
57232;BME280;43488;46.934;8.276;2022-10-16T07:31:30;96666.47;;;14.35;100.00
57232;BME280;43488;46.934;8.276;2022-10-16T07:33:59;96677.56;;;14.43;100.00
57232;BME280;43488;46.934;8.276;2022-10-16T07:36:28;96683.81;;;14.49;100.00
57232;BME280;43488;46.934;8.276;2022-10-16T07:38:56;96689.47;;;14.52;100.00
57232;BME280;43488;46.934;8.276;2022-10-16T07:41:23;96686.72;;;14.59;100.00
57232;BME280;43488;46.934;8.276;2022-10-16T07:43:52;96685.44;;;14.62;100.00
57232;BME280;43488;46.934;8.276;2022-10-16T07:46:22;96688.13;;;14.73;100.00
57232;BME280;43488;46.934;8.276;2022-10-16T07:48:50;96692.16;;;14.76;100.00
57232;BME280;43488;46.934;8.276;2022-10-16T07:51:21;96690.31;;;14.76;100.00
57232;BME280;43488;46.934;8.276;2022-10-16T07:53:49;96689.97;;;14.85;100.00
57232;BME280;43488;46.934;8.276;2022-10-16T07:56:19;96696.44;;;14.89;100.00
57232;BME280;43488;46.934;8.276;2022-10-16T07:58:46;96706.00;;;14.90;100.00
57232;BME280;43488;46.934;8.276;2022-10-16T08:01:15;96700.81;;;14.95;99.82
57232;BME280;43488;46.934;8.276;2022-10-16T08:03:46;96701.75;;;15.00;99.17
57232;BME280;43488;46.934;8.276;2022-10-16T08:06:14;96710.28;;;15.02;99.24
57232;BME280;43488;46.934;8.276;2022-10-16T08:08:42;96715.47;;;15.09;99.16
57232;BME280;43488;46.934;8.276;2022-10-16T08:11:09;96707.63;;;15.14;99.75
57232;BME280;43488;46.934;8.276;2022-10-16T08:13:37;96708.78;;;15.18;100.00
57232;BME280;43488;46.934;8.276;2022-10-16T08:16:04;96714.19;;;15.23;100.00
57232;BME280;43488;46.934;8.276;2022-10-16T08:18:40;96708.41;;;15.26;100.00
57232;BME280;43488;46.934;8.276;2022-10-16T08:21:17;96719.16;;;15.31;100.00
57232;BME280;43488;46.934;8.276;2022-10-16T08:23:45;96709.34;;;15.32;99.78
57232;BME280;43488;46.934;8.276;2022-10-16T08:26:13;96724.78;;;15.35;99.63
57232;BME280;43488;46.934;8.276;2022-10-16T08:28:40;96723.31;;;15.39;100.00
57232;BME280;43488;46.934;8.276;2022-10-16T08:31:13;96735.28;;;15.42;100.00
57232;BME280;43488;46.934;8.276;2022-10-16T08:33:43;96728.50;;;15.46;100.00
57232;BME280;43488;46.934;8.276;2022-10-16T08:36:11;96729.06;;;15.48;100.00
57232;BME280;43488;46.934;8.276;2022-10-16T08:38:39;96738.38;;;15.50;100.00
57232;BME280;43488;46.934;8.276;2022-10-16T08:47:35;96755.00;;;15.69;98.69
57232;BME280;43488;46.934;8.276;2022-10-16T08:50:13;96754.31;;;15.74;98.67
57232;BME280;43488;46.934;8.276;2022-10-16T08:52:43;96760.28;;;15.81;99.05
57232;BME280;43488;46.934;8.276;2022-10-16T08:57:58;96760.53;;;15.91;97.87
57232;BME280;43488;46.934;8.276;2022-10-16T09:00:26;96761.19;;;15.98;96.53
57232;BME280;43488;46.934;8.276;2022-10-16T09:11:18;96761.00;;;16.28;93.13
57232;BME280;43488;46.934;8.276;2022-10-16T09:20:39;96763.63;;;16.57;89.92
57232;BME280;43488;46.934;8.276;2022-10-16T09:23:30;96765.53;;;16.73;87.44
57232;BME280;43488;46.934;8.276;2022-10-16T09:25:58;96771.59;;;16.85;85.30
57232;BME280;43488;46.934;8.276;2022-10-16T09:28:26;96773.38;;;16.96;83.43
57232;BME280;43488;46.934;8.276;2022-10-16T09:30:54;96781.50;;;17.06;81.71
57232;BME280;43488;46.934;8.276;2022-10-16T09:33:25;96783.38;;;17.06;80.82
57232;BME280;43488;46.934;8.276;2022-10-16T09:35:57;96774.03;;;17.20;79.34
57232;BME280;43488;46.934;8.276;2022-10-16T09:38:32;96782.31;;;17.24;79.65
57232;BME280;43488;46.934;8.276;2022-10-16T09:41:17;96778.22;;;17.33;80.75
57232;BME280;43488;46.934;8.276;2022-10-16T09:43:52;96780.31;;;17.48;79.93
57232;BME280;43488;46.934;8.276;2022-10-16T09:46:31;96775.69;;;17.77;77.54
57232;BME280;43488;46.934;8.276;2022-10-16T09:49:24;96774.69;;;18.05;75.91
57232;BME280;43488;46.934;8.276;2022-10-16T09:52:11;96773.53;;;17.96;73.65
57232;BME280;43488;46.934;8.276;2022-10-16T09:54:58;96772.06;;;18.10;75.37
57232;BME280;43488;46.934;8.276;2022-10-16T09:57:26;96771.66;;;18.40;75.65
57232;BME280;43488;46.934;8.276;2022-10-16T09:59:58;96774.25;;;18.62;69.66
57232;BME280;43488;46.934;8.276;2022-10-16T10:02:37;96766.38;;;18.72;70.26
57232;BME280;43488;46.934;8.276;2022-10-16T10:05:16;96771.41;;;18.95;70.87
57232;BME280;43488;46.934;8.276;2022-10-16T10:07:44;96770.22;;;19.13;72.76
57232;BME280;43488;46.934;8.276;2022-10-16T10:12:50;96759.16;;;19.31;72.14
57232;BME280;43488;46.934;8.276;2022-10-16T10:15:17;96758.53;;;19.56;71.63
57232;BME280;43488;46.934;8.276;2022-10-16T10:17:53;96760.53;;;19.76;72.08
57232;BME280;43488;46.934;8.276;2022-10-16T10:20:32;96761.16;;;19.94;69.58
57232;BME280;43488;46.934;8.276;2022-10-16T10:23:22;96751.03;;;20.11;69.04
57232;BME280;43488;46.934;8.276;2022-10-16T10:26:07;96750.84;;;20.28;69.12
57232;BME280;43488;46.934;8.276;2022-10-16T10:28:55;96755.25;;;20.59;66.20
57232;BME280;43488;46.934;8.276;2022-10-16T10:40:34;96742.69;;;21.46;60.71
57232;BME280;43488;46.934;8.276;2022-10-16T10:46:34;96741.38;;;21.28;60.99
57232;BME280;43488;46.934;8.276;2022-10-16T10:52:11;96731.59;;;21.89;60.01
57232;BME280;43488;46.934;8.276;2022-10-16T10:55:15;96727.22;;;22.03;61.29
57232;BME280;43488;46.934;8.276;2022-10-16T10:58:10;96725.31;;;22.24;58.97
57232;BME280;43488;46.934;8.276;2022-10-16T11:06:52;96715.75;;;22.96;56.13
57232;BME280;43488;46.934;8.276;2022-10-16T11:09:36;96707.25;;;23.13;54.40
57232;BME280;43488;46.934;8.276;2022-10-16T11:15:00;96699.44;;;23.16;54.47
57232;BME280;43488;46.934;8.276;2022-10-16T11:17:39;96698.44;;;23.36;54.49
57232;BME280;43488;46.934;8.276;2022-10-16T11:20:34;96699.16;;;23.18;52.57
57232;BME280;43488;46.934;8.276;2022-10-16T11:23:37;96700.81;;;23.14;53.60
57232;BME280;43488;46.934;8.276;2022-10-16T11:26:19;96704.19;;;22.95;54.48
57232;BME280;43488;46.934;8.276;2022-10-16T11:28:54;96698.25;;;22.98;53.26
57232;BME280;43488;46.934;8.276;2022-10-16T11:31:32;96694.34;;;23.44;52.75
57232;BME280;43488;46.934;8.276;2022-10-16T11:34:25;96693.53;;;23.43;55.19
57232;BME280;43488;46.934;8.276;2022-10-16T11:39:45;96685.53;;;23.38;54.06
57232;BME280;43488;46.934;8.276;2022-10-16T11:42:32;96692.38;;;23.49;54.21
57232;BME280;43488;46.934;8.276;2022-10-16T11:45:26;96695.81;;;23.60;51.64
57232;BME280;43488;46.934;8.276;2022-10-16T11:49:07;96689.28;;;24.09;50.15
57232;BME280;43488;46.934;8.276;2022-10-16T11:51:36;96691.53;;;24.45;50.20
57232;BME280;43488;46.934;8.276;2022-10-16T11:54:22;96688.09;;;24.39;47.85
57232;BME280;43488;46.934;8.276;2022-10-16T11:56:56;96686.06;;;24.50;47.31
57232;BME280;43488;46.934;8.276;2022-10-16T11:59:39;96686.44;;;24.62;47.01
57232;BME280;43488;46.934;8.276;2022-10-16T12:02:50;96685.13;;;24.92;47.29
57232;BME280;43488;46.934;8.276;2022-10-16T12:08:12;96686.53;;;24.89;44.70
57232;BME280;43488;46.934;8.276;2022-10-16T12:10:44;96676.75;;;24.61;45.56
57232;BME280;43488;46.934;8.276;2022-10-16T12:13:33;96678.75;;;25.07;44.24
57232;BME280;43488;46.934;8.276;2022-10-16T12:16:24;96663.38;;;24.56;42.91
57232;BME280;43488;46.934;8.276;2022-10-16T12:19:11;96668.53;;;25.04;42.65
57232;BME280;43488;46.934;8.276;2022-10-16T12:21:39;96660.16;;;25.51;41.92
57232;BME280;43488;46.934;8.276;2022-10-16T12:24:06;96667.66;;;25.82;41.75
57232;BME280;43488;46.934;8.276;2022-10-16T12:26:47;96655.53;;;26.07;42.46
57232;BME280;43488;46.934;8.276;2022-10-16T12:29:23;96661.06;;;26.38;42.98
57232;BME280;43488;46.934;8.276;2022-10-16T12:31:55;96656.47;;;26.39;41.76
57232;BME280;43488;46.934;8.276;2022-10-16T12:34:41;96654.53;;;26.53;42.63
57232;BME280;43488;46.934;8.276;2022-10-16T12:37:22;96658.75;;;26.31;42.70
57232;BME280;43488;46.934;8.276;2022-10-16T12:39:52;96660.22;;;25.88;43.89
57232;BME280;43488;46.934;8.276;2022-10-16T12:44:55;96653.66;;;26.66;43.13
57232;BME280;43488;46.934;8.276;2022-10-16T12:49:59;96660.47;;;26.63;42.59
57232;BME280;43488;46.934;8.276;2022-10-16T12:52:36;96649.19;;;27.06;42.69
57232;BME280;43488;46.934;8.276;2022-10-16T12:55:09;96652.00;;;27.32;42.12
57232;BME280;43488;46.934;8.276;2022-10-16T12:58:45;96656.00;;;27.66;41.76
57232;BME280;43488;46.934;8.276;2022-10-16T13:04:36;96654.81;;;28.06;40.59
57232;BME280;43488;46.934;8.276;2022-10-16T13:07:30;96655.53;;;28.38;38.06
57232;BME280;43488;46.934;8.276;2022-10-16T13:15:52;96665.56;;;33.99;29.73
57232;BME280;43488;46.934;8.276;2022-10-16T13:30:31;96664.47;;;39.00;19.98
57232;BME280;43488;46.934;8.276;2022-10-16T13:35:58;96661.81;;;41.30;18.60
57232;BME280;43488;46.934;8.276;2022-10-16T13:38:44;96659.88;;;41.82;16.99
57232;BME280;43488;46.934;8.276;2022-10-16T13:41:17;96665.66;;;41.95;16.37
57232;BME280;43488;46.934;8.276;2022-10-16T13:43:50;96670.56;;;42.21;16.07
57232;BME280;43488;46.934;8.276;2022-10-16T13:46:21;96660.28;;;41.81;15.90
57232;BME280;43488;46.934;8.276;2022-10-16T13:49:04;96668.97;;;41.20;17.41
57232;BME280;43488;46.934;8.276;2022-10-16T13:51:33;96664.91;;;42.70;15.84
57232;BME280;43488;46.934;8.276;2022-10-16T13:54:00;96676.19;;;43.43;14.99
57232;BME280;43488;46.934;8.276;2022-10-16T13:56:32;96673.50;;;44.14;14.71
57232;BME280;43488;46.934;8.276;2022-10-16T13:59:05;96677.91;;;44.74;14.44
57232;BME280;43488;46.934;8.276;2022-10-16T14:01:44;96680.69;;;44.74;14.34
57232;BME280;43488;46.934;8.276;2022-10-16T14:04:12;96674.97;;;45.01;14.44
57232;BME280;43488;46.934;8.276;2022-10-16T14:06:44;96682.34;;;44.48;15.11
57232;BME280;43488;46.934;8.276;2022-10-16T14:09:27;96678.88;;;44.44;15.01
57232;BME280;43488;46.934;8.276;2022-10-16T14:12:10;96676.50;;;44.23;15.02
57232;BME280;43488;46.934;8.276;2022-10-16T14:14:47;96680.34;;;44.29;14.83
57232;BME280;43488;46.934;8.276;2022-10-16T14:17:25;96678.63;;;43.92;16.09
57232;BME280;43488;46.934;8.276;2022-10-16T14:19:57;96679.78;;;44.18;15.81
57232;BME280;43488;46.934;8.276;2022-10-16T14:22:36;96685.06;;;42.32;15.89
57232;BME280;43488;46.934;8.276;2022-10-16T14:28:17;96682.38;;;43.24;16.26
57232;BME280;43488;46.934;8.276;2022-10-16T14:30:56;96679.91;;;43.60;15.74
57232;BME280;43488;46.934;8.276;2022-10-16T14:38:48;96682.25;;;42.74;16.60
57232;BME280;43488;46.934;8.276;2022-10-16T14:41:21;96682.22;;;43.38;16.04
57232;BME280;43488;46.934;8.276;2022-10-16T14:44:01;96686.63;;;43.32;16.32
57232;BME280;43488;46.934;8.276;2022-10-16T14:46:36;96684.03;;;42.19;17.68
57232;BME280;43488;46.934;8.276;2022-10-16T14:51:39;96682.31;;;39.56;20.08
57232;BME280;43488;46.934;8.276;2022-10-16T14:54:14;96684.25;;;39.34;20.95
57232;BME280;43488;46.934;8.276;2022-10-16T14:56:52;96684.44;;;38.13;21.48
57232;BME280;43488;46.934;8.276;2022-10-16T14:59:35;96686.84;;;36.62;22.87
57232;BME280;43488;46.934;8.276;2022-10-16T15:04:43;96695.47;;;36.08;23.19
57232;BME280;43488;46.934;8.276;2022-10-16T15:07:10;96696.78;;;35.26;24.95
57232;BME280;43488;46.934;8.276;2022-10-16T15:09:38;96694.44;;;35.47;24.57
57232;BME280;43488;46.934;8.276;2022-10-16T15:12:08;96700.84;;;35.13;25.26
57232;BME280;43488;46.934;8.276;2022-10-16T15:14:35;96697.03;;;34.43;26.15
57232;BME280;43488;46.934;8.276;2022-10-16T15:17:03;96700.16;;;34.81;26.35
57232;BME280;43488;46.934;8.276;2022-10-16T15:19:30;96708.63;;;35.53;24.74
57232;BME280;43488;46.934;8.276;2022-10-16T15:21:58;96703.63;;;36.31;24.74